Time;durP1;ratioP1;P1;durP2;ratioP2;P2;SDS_P1;SDS_P2;PMS_P1;PMS_P2;Temp;Humidity;BMP_temperature;BMP_pressure;BME280_temperature;BME280_humidity;BME280_pressure;Samples;Min_cycle;Max_cycle;Signal;HPM_P1;HPM_P2
2021/04/05 00:00:56;;;;;;;36.67;15.75;;;5.80;99.90;;;;;;5092224;28;20039;-65
2021/04/05 00:03:22;;;;;;;39.20;18.45;;;5.70;99.90;;;;;;5080513;28;20037;-67
2021/04/05 00:05:48;;;;;;;31.25;13.93;;;5.70;99.90;;;;;;5082793;28;20142;-67
2021/04/05 00:08:13;;;;;;;32.63;13.85;;;5.80;99.90;;;;;;5092599;28;20108;-67
2021/04/05 00:10:44;;;;;;;28.65;12.63;;;5.80;99.90;;;;;;5099610;28;20036;-67
2021/04/05 00:13:11;;;;;;;;;;;5.80;99.90;;;;;;5092034;28;20543;-67
2021/04/05 00:15:36;;;;;;;36.13;15.93;;;5.80;99.90;;;;;;5096558;28;19931;-68
2021/04/05 00:18:03;;;;;;;34.05;11.43;;;5.70;99.90;;;;;;5090101;28;20089;-67
2021/04/05 00:20:34;;;;;;;35.63;18.10;;;5.70;99.90;;;;;;5096835;28;20028;-67
2021/04/05 00:23:00;;;;;;;23.88;10.52;;;5.70;99.90;;;;;;5089619;28;20481;-67
2021/04/05 00:25:26;;;;;;;28.15;11.45;;;5.70;99.90;;;;;;5097317;28;20118;-67
2021/04/05 00:27:52;;;;;;;41.72;14.93;;;5.80;99.90;;;;;;5094267;28;20353;-67
2021/04/05 00:30:29;;;;;;;26.90;9.23;;;5.70;99.90;;;;;;5089490;28;20053;-68
2021/04/05 00:32:55;;;;;;;42.15;24.45;;;5.70;99.90;;;;;;5076375;28;20028;-67
2021/04/05 00:35:25;;;;;;;32.15;12.32;;;5.80;99.90;;;;;;5064476;28;20449;-67
2021/04/05 00:37:51;;;;;;;37.88;20.20;;;5.70;99.90;;;;;;5087678;28;20050;-67
2021/04/05 00:40:21;;;;;;;28.27;13.38;;;5.80;99.90;;;;;;5087684;28;20499;-67
2021/04/05 00:42:48;;;;;;;31.52;13.40;;;5.80;99.90;;;;;;5084493;28;20490;-67
2021/04/05 00:45:17;;;;;;;33.17;14.50;;;5.70;99.90;;;;;;5088991;28;20050;-67
2021/04/05 00:47:50;;;;;;;22.58;9.15;;;5.80;99.90;;;;;;5089028;28;20479;-67
2021/04/05 00:50:25;;;;;;;30.08;13.48;;;5.80;99.90;;;;;;5066794;28;20032;-67
2021/04/05 00:52:52;;;;;;;32.72;16.60;;;5.80;99.90;;;;;;5100078;28;20029;-67
2021/04/05 00:55:19;;;;;;;29.90;14.50;;;5.80;99.90;;;;;;5088183;28;20077;-68
2021/04/05 00:57:45;;;;;;;30.10;13.20;;;5.80;99.90;;;;;;5089627;28;20028;-65
2021/04/05 01:00:16;;;;;;;42.97;12.65;;;5.80;99.90;;;;;;5090982;28;20043;-67
2021/04/05 01:02:42;;;;;;;35.03;12.10;;;5.80;99.90;;;;;;5082008;28;20112;-67
2021/04/05 01:05:10;;;;;;;35.67;12.55;;;5.80;99.90;;;;;;5080120;28;20036;-65
2021/04/05 01:07:36;;;;;;;26.55;6.35;;;5.80;99.90;;;;;;5089285;28;20056;-65
2021/04/05 01:10:06;;;;;;;35.22;13.60;;;5.70;99.90;;;;;;5079492;28;20112;-67
2021/04/05 01:12:32;;;;;;;31.73;11.77;;;5.80;99.90;;;;;;5086697;28;20035;-67
2021/04/05 01:14:57;;;;;;;33.97;13.15;;;5.80;99.90;;;;;;5084107;28;20044;-67
2021/04/05 01:17:23;;;;;;;28.13;10.68;;;5.80;99.90;;;;;;5079056;28;20020;-67
2021/04/05 01:19:49;;;;;;;36.55;14.88;;;5.80;99.90;;;;;;5092711;28;20040;-67
2021/04/05 01:22:14;;;;;;;31.95;11.80;;;5.80;99.90;;;;;;5092213;28;20024;-67
2021/04/05 01:24:40;;;;;;;29.27;13.13;;;5.80;99.90;;;;;;5084683;28;20031;-67
2021/04/05 01:27:07;;;;;;;24.83;9.15;;;5.80;99.90;;;;;;5098118;28;20032;-67
2021/04/05 01:29:32;;;;;;;28.73;11.40;;;5.90;99.90;;;;;;5086168;28;20038;-67
2021/04/05 01:31:58;;;;;;;41.08;13.38;;;5.90;99.90;;;;;;5099533;28;20032;-67
2021/04/05 01:34:24;;;;;;;21.08;8.07;;;5.90;99.90;;;;;;5099253;28;20111;-67
2021/04/05 01:36:49;;;;;;;28.83;16.15;;;5.90;99.90;;;;;;5106180;28;20028;-67
2021/04/05 01:39:15;;;;;;;28.40;11.23;;;6.00;99.90;;;;;;5077341;28;20389;-67
2021/04/05 01:41:41;;;;;;;30.05;12.35;;;6.00;99.90;;;;;;5093125;28;20118;-67
2021/04/05 01:44:06;;;;;;;31.80;10.32;;;5.90;99.90;;;;;;5085630;28;20040;-67
2021/04/05 01:46:32;;;;;;;26.77;12.60;;;5.90;99.90;;;;;;5094228;28;20059;-67
2021/04/05 01:49:02;;;;;;;32.22;9.95;;;6.00;99.90;;;;;;5090890;28;21147;-67
2021/04/05 01:51:28;;;;;;;;;;;5.90;99.90;;;;;;5086870;28;20020;-67
2021/04/05 01:53:55;;;;;;;26.92;12.55;;;5.80;99.90;;;;;;5091233;28;19904;-67
2021/04/05 01:56:22;;;;;;;26.92;10.70;;;5.80;99.90;;;;;;5081841;28;20032;-67
2021/04/05 01:58:52;;;;;;;27.98;10.52;;;5.90;99.90;;;;;;5083208;28;20028;-67
2021/04/05 02:01:24;;;;;;;26.23;9.75;;;5.90;99.90;;;;;;5089960;28;20388;-67
2021/04/05 02:03:51;;;;;;;33.35;12.45;;;5.80;99.90;;;;;;5092211;28;20117;-67
2021/04/05 02:06:22;;;;;;;31.27;13.23;;;5.80;99.90;;;;;;5090821;28;20060;-68
2021/04/05 02:08:48;;;;;;;33.25;12.02;;;5.80;99.90;;;;;;5080794;28;20028;-68
2021/04/05 02:11:17;;;;;;;32.78;11.95;;;5.70;99.90;;;;;;5083971;28;20140;-67
2021/04/05 02:13:50;;;;;;;29.83;11.17;;;5.80;99.90;;;;;;5080303;28;20028;-65
2021/04/05 02:16:20;;;;;;;41.33;18.25;;;5.70;99.90;;;;;;5072250;28;20020;-67
2021/04/05 02:18:47;;;;;;;26.70;10.55;;;5.90;99.90;;;;;;5085819;28;20021;-67
2021/04/05 02:21:19;;;;;;;39.53;14.93;;;5.90;99.90;;;;;;5087828;28;20383;-67
2021/04/05 02:23:51;;;;;;;25.90;11.25;;;5.80;99.90;;;;;;5077134;28;20024;-67
2021/04/05 02:26:19;;;;;;;25.17;9.80;;;5.80;99.90;;;;;;5089418;28;20437;-67
2021/04/05 02:28:48;;;;;;;28.52;11.43;;;6.00;99.90;;;;;;5091313;28;20024;-67
2021/04/05 02:31:16;;;;;;;35.40;16.55;;;6.00;99.90;;;;;;5072396;28;20115;-67
2021/04/05 02:33:44;;;;;;;31.40;12.73;;;5.90;99.90;;;;;;5089705;28;20081;-67
2021/04/05 02:36:13;;;;;;;24.25;10.95;;;5.90;99.90;;;;;;5089679;28;20536;-67
2021/04/05 02:38:40;;;;;;;34.53;15.68;;;5.80;99.90;;;;;;5073254;28;20417;-67
2021/04/05 02:41:11;;;;;;;35.67;11.25;;;5.80;99.90;;;;;;5092465;28;20043;-68
2021/04/05 02:43:38;;;;;;;31.00;13.48;;;6.00;99.90;;;;;;5094544;28;20131;-67
2021/04/05 02:46:07;;;;;;;35.15;15.73;;;6.00;99.90;;;;;;5093506;28;20069;-67
2021/04/05 02:48:37;;;;;;;39.08;17.33;;;6.00;99.90;;;;;;5096169;28;20062;-67
2021/04/05 02:51:03;;;;;;;;;;;6.00;99.90;;;;;;5086016;28;20093;-67
2021/04/05 02:53:30;;;;;;;32.58;14.05;;;6.00;99.90;;;;;;5085729;28;19973;-67
2021/04/05 02:56:00;;;;;;;36.35;15.77;;;6.00;99.90;;;;;;5077103;28;20114;-68
2021/04/05 02:58:26;;;;;;;44.43;21.63;;;6.00;99.90;;;;;;5089476;28;20030;-67
2021/04/05 03:00:51;;;;;;;39.65;19.35;;;6.10;99.90;;;;;;5082945;28;20273;-67
2021/04/05 03:03:18;;;;;;;35.38;12.70;;;6.10;99.90;;;;;;5090420;28;20023;-67
2021/04/05 03:05:44;;;;;;;23.73;8.73;;;6.10;99.90;;;;;;5089379;28;20044;-67
2021/04/05 03:08:10;;;;;;;34.88;14.10;;;6.20;99.90;;;;;;5090917;28;20154;-65
2021/04/05 03:10:36;;;;;;;40.42;16.95;;;6.10;99.90;;;;;;5089467;28;20107;-67
2021/04/05 03:13:03;;;;;;;44.17;21.52;;;6.20;99.90;;;;;;5082319;28;20497;-69
2021/04/05 03:15:29;;;;;;;37.08;13.48;;;6.20;99.90;;;;;;5086439;28;20535;-67
2021/04/05 03:18:01;;;;;;;36.35;15.27;;;6.20;99.90;;;;;;5067754;28;20028;-67
2021/04/05 03:20:32;;;;;;;40.97;16.15;;;6.20;99.90;;;;;;5092693;28;20019;-67
2021/04/05 03:23:00;;;;;;;33.33;15.02;;;6.20;99.90;;;;;;5073949;28;20731;-67
2021/04/05 03:25:26;;;;;;;34.00;11.48;;;6.30;99.90;;;;;;5091575;28;20024;-68
2021/04/05 03:27:52;;;;;;;35.60;10.60;;;6.30;99.90;;;;;;5088631;28;20104;-68
2021/04/05 03:30:24;;;;;;;30.52;13.60;;;6.30;99.90;;;;;;5092318;28;20107;-67
2021/04/05 03:32:58;;;;;;;39.45;13.07;;;6.30;99.90;;;;;;5095710;28;20425;-68
2021/04/05 03:35:32;;;;;;;40.70;14.27;;;6.30;99.90;;;;;;5071093;28;20383;-67
2021/04/05 03:38:00;;;;;;;36.00;14.23;;;6.30;99.90;;;;;;5088180;28;20028;-67
2021/04/05 03:40:28;;;;;;;31.65;11.75;;;6.30;99.90;;;;;;5088014;28;20044;-68
2021/04/05 03:43:06;;;;;;;36.88;17.90;;;6.30;99.90;;;;;;5086283;28;20079;-67
2021/04/05 03:45:45;;;;;;;35.80;13.20;;;6.30;99.90;;;;;;5080081;28;20025;-68
2021/04/05 03:48:14;;;;;;;32.75;14.63;;;6.30;99.90;;;;;;5096490;28;20028;-67
2021/04/05 03:50:48;;;;;;;39.25;16.42;;;6.30;99.90;;;;;;5102149;28;20028;-68
2021/04/05 03:53:37;;;;;;;39.65;16.50;;;6.30;99.90;;;;;;5089997;28;20027;-67
2021/04/05 03:56:10;;;;;;;39.35;13.68;;;6.20;99.90;;;;;;5095913;28;20350;-67
2021/04/05 03:58:38;;;;;;;43.47;18.98;;;6.30;99.90;;;;;;5080625;28;20032;-68
2021/04/05 04:01:07;;;;;;;34.33;13.73;;;6.30;99.90;;;;;;5086642;28;20142;-67
2021/04/05 04:03:52;;;;;;;37.90;16.73;;;6.30;99.90;;;;;;5087353;28;20029;-67
2021/04/05 04:06:24;;;;;;;47.78;23.10;;;6.30;99.90;;;;;;5081097;28;20742;-67
2021/04/05 04:08:52;;;;;;;43.05;15.93;;;6.30;99.90;;;;;;5076081;28;20039;-67
2021/04/05 04:11:24;;;;;;;26.10;12.32;;;6.30;99.90;;;;;;5101208;28;20488;-67
2021/04/05 04:13:52;;;;;;;49.92;22.13;;;6.30;99.90;;;;;;5094276;28;20031;-68
2021/04/05 04:16:20;;;;;;;40.85;15.07;;;6.30;99.90;;;;;;5087727;28;20096;-68
2021/04/05 04:18:46;;;;;;;44.53;18.95;;;6.30;99.90;;;;;;5088678;28;20029;-67
2021/04/05 04:21:15;;;;;;;32.58;14.60;;;6.30;99.90;;;;;;5079168;28;20384;-67
2021/04/05 04:23:41;;;;;;;40.70;19.60;;;6.30;99.90;;;;;;5089632;28;20059;-67
2021/04/05 04:26:07;;;;;;;42.03;14.88;;;6.30;99.90;;;;;;5088011;28;20085;-67
2021/04/05 04:28:34;;;;;;;34.22;15.38;;;6.30;99.90;;;;;;5090611;28;20032;-67
2021/04/05 04:31:02;;;;;;;40.15;18.70;;;6.30;99.90;;;;;;5107567;28;20032;-67
2021/04/05 04:33:32;;;;;;;45.05;20.88;;;6.20;99.90;;;;;;5091747;28;20020;-67
2021/04/05 04:35:58;;;;;;;43.28;16.73;;;6.30;99.90;;;;;;5084498;28;20029;-67
2021/04/05 04:38:26;;;;;;;37.97;14.50;;;6.30;99.90;;;;;;5076380;28;20032;-67
2021/04/05 04:40:52;;;;;;;52.03;25.08;;;6.30;99.90;;;;;;5081784;28;20044;-67
2021/04/05 04:43:18;;;;;;;41.75;16.55;;;6.30;99.90;;;;;;5087093;28;20111;-67
2021/04/05 04:45:44;;;;;;;35.92;16.67;;;6.30;99.90;;;;;;5088389;28;20036;-67
2021/04/05 04:48:10;;;;;;;36.50;14.77;;;6.30;99.90;;;;;;5088506;28;20442;-67
2021/04/05 04:50:36;;;;;;;45.42;16.10;;;6.30;99.90;;;;;;5089938;28;20107;-67
2021/04/05 04:53:03;;;;;;;43.42;15.75;;;6.30;99.90;;;;;;5084974;28;20024;-67
2021/04/05 04:55:29;;;;;;;36.90;15.38;;;6.30;99.90;;;;;;5090862;28;20024;-65
2021/04/05 04:57:57;;;;;;;43.75;15.25;;;6.30;99.90;;;;;;5099138;28;20070;-67
2021/04/05 05:00:25;;;;;;;37.28;15.60;;;6.30;99.90;;;;;;5090465;28;20016;-67
2021/04/05 05:02:51;;;;;;;60.38;21.90;;;6.30;99.90;;;;;;5088963;28;20036;-67
2021/04/05 05:05:18;;;;;;;38.40;15.90;;;6.30;99.90;;;;;;5087130;28;20064;-67
2021/04/05 05:07:44;;;;;;;41.55;18.77;;;6.40;99.90;;;;;;5088149;28;20020;-67
2021/04/05 05:10:12;;;;;;;29.50;11.35;;;6.30;99.90;;;;;;5088741;28;20463;-67
2021/04/05 05:12:39;;;;;;;45.55;19.73;;;6.30;99.90;;;;;;5093591;28;20383;-67
2021/04/05 05:15:11;;;;;;;36.03;15.07;;;6.30;99.90;;;;;;5091203;28;20047;-67
2021/04/05 05:17:42;;;;;;;37.03;15.95;;;6.30;99.90;;;;;;5091444;28;20470;-67
2021/04/05 05:20:10;;;;;;;38.55;13.80;;;6.40;99.90;;;;;;5060082;28;20055;-67
2021/04/05 05:22:40;;;;;;;38.15;17.10;;;6.40;99.90;;;;;;5074600;28;20421;-67
2021/04/05 05:25:07;;;;;;;42.60;17.17;;;6.30;99.90;;;;;;5079262;28;20028;-67
2021/04/05 05:27:40;;;;;;;34.92;15.23;;;6.40;99.90;;;;;;5088817;28;20032;-66
2021/04/05 05:30:07;;;;;;;49.13;21.80;;;6.40;99.90;;;;;;5089658;28;20114;-66
2021/04/05 05:32:35;;;;;;;37.17;13.75;;;6.40;99.90;;;;;;5090144;28;20054;-66
2021/04/05 05:35:02;;;;;;;35.00;14.35;;;6.40;99.90;;;;;;5100764;28;20032;-66
2021/04/05 05:37:27;;;;;;;38.78;15.40;;;6.40;99.90;;;;;;5085897;28;20095;-66
2021/04/05 05:39:53;;;;;;;41.72;18.27;;;6.40;99.90;;;;;;5080679;28;20645;-66
2021/04/05 05:42:44;;;;;;;34.63;14.75;;;6.40;99.90;;;;;;5090413;28;20027;-66
2021/04/05 05:45:14;;;;;;;51.17;25.45;;;6.50;99.90;;;;;;5085141;28;20043;-66
2021/04/05 05:47:46;;;;;;;;;;;6.50;99.90;;;;;;5089088;28;20024;-66
2021/04/05 05:50:57;;;;;;;43.55;17.52;;;6.50;99.90;;;;;;5086684;28;19908;-66
2021/04/05 05:53:43;;;;;;;47.70;20.95;;;6.50;99.90;;;;;;5089356;28;20108;-66
2021/04/05 05:56:47;;;;;;;41.90;17.42;;;6.50;99.90;;;;;;5087530;28;20028;-66
2021/04/05 05:59:31;;;;;;;43.70;19.58;;;6.50;99.90;;;;;;5085282;28;20035;-66
2021/04/05 06:02:16;;;;;;;45.72;22.67;;;6.50;99.90;;;;;;5079431;28;20024;-66
2021/04/05 06:04:51;;;;;;;36.45;15.68;;;6.50;99.90;;;;;;5081140;28;20108;-66
2021/04/05 06:07:54;;;;;;;51.10;21.40;;;6.50;99.90;;;;;;5074612;28;20047;-69
2021/04/05 06:10:30;;;;;;;35.95;16.73;;;6.50;99.90;;;;;;5075245;28;20034;-69
2021/04/05 06:13:08;;;;;;;58.55;30.88;;;6.50;99.90;;;;;;5082285;28;20142;-72
2021/04/05 06:16:08;;;;;;;40.13;17.20;;;6.40;99.90;;;;;;5079826;28;20501;-70
2021/04/05 06:18:48;;;;;;;48.25;21.25;;;6.40;99.90;;;;;;5038270;28;20052;-70
2021/04/05 06:21:44;;;;;;;53.67;21.65;;;6.30;99.90;;;;;;5075216;28;20052;-69
2021/04/05 06:24:22;;;;;;;58.70;28.13;;;6.30;99.90;;;;;;5054614;28;20132;-69
2021/04/05 06:26:59;;;;;;;54.00;24.00;;;6.30;99.90;;;;;;5074751;28;20098;-69
2021/04/05 06:29:49;;;;;;;54.20;21.85;;;6.20;99.90;;;;;;5073711;28;20024;-71
2021/04/05 06:32:37;;;;;;;38.92;17.75;;;6.10;99.90;;;;;;5075572;28;20383;-68
2021/04/05 06:35:24;;;;;;;62.90;33.13;;;6.00;99.90;;;;;;5072769;28;20160;-71
2021/04/05 06:37:58;;;;;;;52.63;20.67;;;6.10;99.90;;;;;;5076228;28;20486;-68
2021/04/05 06:40:29;;;;;;;67.03;33.25;;;6.10;99.90;;;;;;5081930;28;20055;-71
2021/04/05 06:43:10;;;;;;;50.28;19.42;;;6.20;99.90;;;;;;5075108;28;20016;-69
2021/04/05 06:46:11;;;;;;;54.55;22.50;;;6.10;99.90;;;;;;5074208;28;20039;-73
2021/04/05 06:49:28;;;;;;;48.60;20.45;;;6.10;99.90;;;;;;5080333;28;20082;-70
2021/04/05 06:52:08;;;;;;;50.10;21.13;;;6.10;99.90;;;;;;5021115;28;20078;-68
2021/04/05 06:54:59;;;;;;;58.03;23.85;;;6.10;99.90;;;;;;5084031;28;20100;-68
2021/04/05 06:58:02;;;;;;;65.20;32.22;;;6.10;99.90;;;;;;5061317;28;20048;-68
2021/04/05 07:01:23;;;;;;;58.10;23.90;;;6.10;99.90;;;;;;5068559;28;20525;-72
2021/04/05 07:04:25;;;;;;;58.10;24.60;;;6.10;99.90;;;;;;5048891;28;20040;-69
2021/04/05 07:07:15;;;;;;;72.70;32.72;;;6.10;99.90;;;;;;5066765;28;20036;-71
2021/04/05 07:10:06;;;;;;;50.58;21.77;;;6.10;99.90;;;;;;5087533;28;20119;-71
2021/04/05 07:12:53;;;;;;;45.58;22.08;;;6.10;99.90;;;;;;5080213;28;20028;-70
2021/04/05 07:15:34;;;;;;;79.07;42.90;;;6.10;99.90;;;;;;5074405;28;20026;-68
2021/04/05 07:18:11;;;;;;;60.03;24.20;;;6.20;99.90;;;;;;5073955;28;20028;-68
2021/04/05 07:21:03;;;;;;;57.28;22.80;;;6.20;99.90;;;;;;5078761;28;20028;-69
2021/04/05 07:23:56;;;;;;;57.55;27.35;;;6.20;99.90;;;;;;5074913;28;20858;-70
2021/04/05 07:26:33;;;;;;;59.15;25.05;;;6.20;99.90;;;;;;5078886;28;20051;-70
2021/04/05 07:29:14;;;;;;;51.35;20.83;;;6.20;99.90;;;;;;5077457;28;20017;-69
2021/04/05 07:32:08;;;;;;;53.63;22.80;;;6.20;99.90;;;;;;5073906;28;20055;-70
2021/04/05 07:35:02;;;;;;;49.40;19.77;;;6.20;99.90;;;;;;5069087;28;20181;-70
2021/04/05 07:37:41;;;;;;;65.13;28.80;;;6.20;99.90;;;;;;5075359;28;20020;-70
2021/04/05 07:40:35;;;;;;;81.40;43.17;;;6.10;99.90;;;;;;5065601;28;20055;-69
2021/04/05 07:43:05;;;;;;;54.33;24.02;;;6.10;99.90;;;;;;5070724;28;20031;-68
2021/04/05 07:46:02;;;;;;;75.90;38.78;;;6.10;99.90;;;;;;5074723;28;20043;-67
2021/04/05 07:48:32;;;;;;;28.63;13.88;;;6.10;99.90;;;;;;5079176;28;20024;-69
2021/04/05 07:51:05;;;;;;;;;;;4.80;99.90;;;;;;5058376;28;20028;-69
2021/04/05 07:53:41;;;;;;;21.52;9.00;;;4.00;99.90;;;;;;5076814;28;19957;-70
2021/04/05 07:56:21;;;;;;;13.60;5.15;;;3.60;99.90;;;;;;5057689;28;20032;-70
2021/04/05 07:59:12;;;;;;;19.65;7.38;;;3.50;99.90;;;;;;5073782;28;20058;-70
2021/04/05 08:01:59;;;;;;;21.52;8.77;;;3.50;99.90;;;;;;5074126;28;20036;-70
2021/04/05 08:04:39;;;;;;;15.48;5.90;;;3.40;99.90;;;;;;5076753;28;20495;-70
2021/04/05 08:07:25;;;;;;;12.27;4.73;;;3.50;99.90;;;;;;5071494;28;20028;-70
2021/04/05 08:10:16;;;;;;;17.10;6.72;;;3.60;99.90;;;;;;5077909;28;20039;-70
2021/04/05 08:12:57;;;;;;;12.05;4.60;;;3.70;99.90;;;;;;5075723;28;20027;-70
2021/04/05 08:15:33;;;;;;;11.95;3.70;;;3.70;99.90;;;;;;5076660;28;20032;-70
2021/04/05 08:18:23;;;;;;;8.90;3.53;;;3.70;99.90;;;;;;5058836;28;20395;-70
2021/04/05 08:20:59;;;;;;;10.13;4.28;;;3.70;99.90;;;;;;5077701;28;20587;-70
2021/04/05 08:23:34;;;;;;;8.10;2.88;;;3.70;99.90;;;;;;5071435;28;20105;-70
2021/04/05 08:26:28;;;;;;;9.48;3.78;;;3.70;99.90;;;;;;5072710;28;20490;-70
2021/04/05 08:29:03;;;;;;;7.85;2.35;;;3.80;99.90;;;;;;5071491;28;20038;-71
2021/04/05 08:31:57;;;;;;;8.60;2.38;;;3.90;99.90;;;;;;5075277;28;20036;-70
2021/04/05 08:34:48;;;;;;;8.93;2.80;;;4.00;99.90;;;;;;5074862;28;20040;-70
2021/04/05 08:37:18;;;;;;;;;;;3.90;99.90;;;;;;5075016;28;20077;-70
2021/04/05 08:39:57;;;;;;;11.50;3.90;;;4.00;99.90;;;;;;5075426;28;19946;-70
2021/04/05 08:42:45;;;;;;;8.23;2.80;;;4.10;99.90;;;;;;5076174;28;20044;-70
2021/04/05 08:45:32;;;;;;;10.73;4.15;;;4.10;99.90;;;;;;5074836;28;20751;-71
2021/04/05 08:48:05;;;;;;;10.85;4.22;;;4.00;99.90;;;;;;5075289;28;20024;-71
2021/04/05 08:50:36;;;;;;;10.57;3.97;;;4.10;99.90;;;;;;5076744;28;20032;-70
2021/04/05 08:53:02;;;;;;;9.70;3.50;;;4.10;99.90;;;;;;5054678;28;20485;-70
2021/04/05 08:55:31;;;;;;;9.00;3.40;;;4.20;99.90;;;;;;5076944;28;20107;-71
2021/04/05 08:58:00;;;;;;;8.18;2.95;;;4.20;99.90;;;;;;5057997;28;20027;-71
2021/04/05 09:00:27;;;;;;;8.98;3.30;;;4.20;99.90;;;;;;5076407;28;20027;-71
2021/04/05 09:03:00;;;;;;;10.82;3.25;;;4.20;99.90;;;;;;5075544;28;20069;-70
2021/04/05 09:05:32;;;;;;;10.82;3.10;;;4.10;99.90;;;;;;5083739;28;20040;-70
2021/04/05 09:08:08;;;;;;;8.00;2.72;;;4.10;99.90;;;;;;5074201;28;20024;-70
2021/04/05 09:10:39;;;;;;;7.07;2.80;;;4.10;99.90;;;;;;5075047;28;20114;-70
2021/04/05 09:13:17;;;;;;;9.00;2.97;;;4.20;99.90;;;;;;5073744;28;20103;-70
2021/04/05 09:16:29;;;;;;;5.97;2.58;;;3.80;99.90;;;;;;5077861;28;20020;-70
2021/04/05 09:19:02;;;;;;;11.05;2.75;;;3.90;99.90;;;;;;5075825;28;20028;-69
2021/04/05 09:21:49;;;;;;;6.57;2.15;;;3.90;99.90;;;;;;5074318;28;20034;-71
2021/04/05 09:24:33;;;;;;;11.18;1.88;;;3.50;99.90;;;;;;5076540;28;20111;-70
2021/04/05 09:27:36;;;;;;;11.00;2.05;;;2.90;99.90;;;;;;5071866;28;20085;-72
2021/04/05 09:30:29;;;;;;;12.95;2.20;;;3.00;99.90;;;;;;5073938;28;20085;-70
2021/04/05 09:33:38;;;;;;;18.25;3.20;;;3.10;99.90;;;;;;5072387;28;20111;-71
2021/04/05 09:36:58;;;;;;;7.60;2.15;;;3.10;99.90;;;;;;5049951;28;20422;-71
2021/04/05 09:39:40;;;;;;;10.57;1.63;;;3.10;99.90;;;;;;5014506;28;20043;-71
2021/04/05 09:42:43;;;;;;;12.13;2.58;;;3.10;99.90;;;;;;5032923;28;20647;-71
2021/04/05 09:45:36;;;;;;;10.32;1.88;;;3.10;99.90;;;;;;5063168;28;20056;-71
2021/04/05 09:48:21;;;;;;;12.23;1.50;;;3.10;99.90;;;;;;5071096;28;20081;-72
2021/04/05 09:51:19;;;;;;;11.27;2.22;;;3.20;99.90;;;;;;5076710;28;20024;-72
2021/04/05 09:53:58;;;;;;;9.75;2.88;;;3.30;99.90;;;;;;5078826;28;20028;-71
2021/04/05 09:56:28;;;;;;;10.30;2.10;;;3.40;99.90;;;;;;5075335;28;20399;-71
2021/04/05 09:59:00;;;;;;;10.68;2.30;;;3.50;99.90;;;;;;5076089;28;20055;-71
2021/04/05 10:01:29;;;;;;;10.80;2.72;;;3.70;99.90;;;;;;5080806;28;20029;-72
2021/04/05 10:04:08;;;;;;;15.15;2.45;;;3.80;99.90;;;;;;5077330;28;20032;-71
2021/04/05 10:06:35;;;;;;;5.32;1.95;;;3.70;99.90;;;;;;5078257;28;20068;-71
2021/04/05 10:09:05;;;;;;;13.40;3.15;;;3.90;99.90;;;;;;5076211;28;20703;-71
2021/04/05 10:11:35;;;;;;;12.00;3.17;;;3.90;99.90;;;;;;5077544;28;20020;-72
2021/04/05 10:14:10;;;;;;;14.32;3.53;;;3.90;99.90;;;;;;5076049;28;20286;-72
2021/04/05 10:16:38;;;;;;;17.38;4.32;;;3.90;99.90;;;;;;5075579;28;20039;-72
2021/04/05 10:19:10;;;;;;;12.18;3.88;;;4.00;99.90;;;;;;5057492;28;20061;-72
2021/04/05 10:21:47;;;;;;;15.27;5.22;;;3.60;99.90;;;;;;5076717;28;20032;-72
2021/04/05 10:24:14;;;;;;;12.57;2.67;;;3.70;99.90;;;;;;5078704;28;20035;-72
2021/04/05 10:26:42;;;;;;;19.63;2.53;;;3.70;99.90;;;;;;5076474;28;20032;-72
2021/04/05 10:29:11;;;;;;;11.45;3.30;;;3.70;99.90;;;;;;5077720;28;20024;-72
2021/04/05 10:31:38;;;;;;;10.30;1.92;;;3.50;99.90;;;;;;5074304;28;20020;-72
2021/04/05 10:34:07;;;;;;;6.88;2.10;;;3.30;99.90;;;;;;5074148;28;20032;-73
2021/04/05 10:36:49;;;;;;;7.80;2.42;;;3.20;99.90;;;;;;5061895;28;20755;-72
2021/04/05 10:39:15;;;;;;;7.07;1.90;;;2.90;99.90;;;;;;5080056;28;20103;-71
2021/04/05 10:42:13;;;;;;;9.93;1.55;;;2.50;99.90;;;;;;5063569;28;20058;-71
2021/04/05 10:44:44;;;;;;;4.50;1.45;;;2.40;99.90;;;;;;5059240;28;20050;-71
2021/04/05 10:47:17;;;;;;;8.13;1.73;;;2.40;99.90;;;;;;5081973;28;20063;-72
2021/04/05 10:49:45;;;;;;;7.50;2.20;;;2.50;99.90;;;;;;5086806;28;20482;-72
2021/04/05 10:52:38;;;;;;;5.80;1.55;;;2.30;99.90;;;;;;5085040;28;20028;-71
2021/04/05 10:55:18;;;;;;;10.27;2.22;;;2.60;99.90;;;;;;5086582;28;20042;-72
2021/04/05 10:57:47;;;;;;;7.97;2.22;;;2.90;99.90;;;;;;5080044;28;20036;-72
2021/04/05 11:00:18;;;;;;;4.07;1.75;;;2.80;99.90;;;;;;5080496;28;20032;-73
2021/04/05 11:02:58;;;;;;;7.15;1.35;;;2.90;99.90;;;;;;5066011;28;20080;-72
2021/04/05 11:05:25;;;;;;;3.72;1.42;;;2.60;99.90;;;;;;5063116;28;20395;-72
2021/04/05 11:07:58;;;;;;;6.45;1.60;;;2.60;99.90;;;;;;5080229;28;20040;-72
2021/04/05 11:10:29;;;;;;;7.32;2.03;;;2.40;99.90;;;;;;5083112;28;20024;-71
2021/04/05 11:13:05;;;;;;;6.50;1.60;;;2.30;99.90;;;;;;5083377;28;20016;-71
2021/04/05 11:15:32;;;;;;;6.32;1.70;;;2.20;99.90;;;;;;5089103;28;20054;-71
2021/04/05 11:18:03;;;;;;;5.38;1.85;;;2.50;99.90;;;;;;5087088;28;20104;-71
2021/04/05 11:20:33;;;;;;;5.40;1.42;;;2.80;99.90;;;;;;5090824;28;20024;-71
2021/04/05 11:23:04;;;;;;;6.20;1.73;;;3.10;99.90;;;;;;5083165;28;20027;-71
2021/04/05 11:25:35;;;;;;;3.50;1.42;;;3.40;99.90;;;;;;5064141;28;20032;-71
2021/04/05 11:28:19;;;;;;;3.58;1.35;;;3.50;99.90;;;;;;5082587;28;20055;-71
2021/04/05 11:30:48;;;;;;;7.97;1.92;;;3.70;99.90;;;;;;5082808;28;20032;-71
2021/04/05 11:33:15;;;;;;;2.88;1.17;;;3.60;99.90;;;;;;5076948;28;20024;-72
2021/04/05 11:35:43;;;;;;;3.08;1.15;;;3.80;99.90;;;;;;5078076;28;20064;-71
2021/04/05 11:38:12;;;;;;;3.88;1.10;;;3.50;99.90;;;;;;5083053;28;20065;-71
2021/04/05 11:40:38;;;;;;;2.90;1.65;;;3.50;99.90;;;;;;5083280;28;20047;-71
2021/04/05 11:43:22;;;;;;;7.53;1.75;;;3.50;99.90;;;;;;5086387;28;20440;-71
2021/04/05 11:45:53;;;;;;;4.18;1.45;;;3.40;99.90;;;;;;5087507;28;20040;-71
2021/04/05 11:48:21;;;;;;;5.82;1.67;;;3.40;99.90;;;;;;5072799;28;20379;-71
2021/04/05 11:50:48;;;;;;;8.02;1.85;;;3.20;99.90;;;;;;5084235;28;20024;-71
2021/04/05 11:53:23;;;;;;;9.45;1.55;;;2.70;99.90;;;;;;5064791;28;20406;-73
2021/04/05 11:56:19;;;;;;;5.72;1.40;;;2.40;99.90;;;;;;5082107;28;20064;-71
2021/04/05 11:59:11;;;;;;;7.03;1.73;;;2.50;99.90;;;;;;5087914;28;20325;-72
2021/04/05 12:01:45;;;;;;;4.25;1.73;;;3.00;99.90;;;;;;5068770;28;20186;-72
2021/04/05 12:04:24;;;;;;;5.30;1.80;;;3.30;99.90;;;;;;5079988;28;20028;-72
2021/04/05 12:07:09;;;;;;;8.93;1.75;;;3.40;99.90;;;;;;5064024;28;20809;-72
2021/04/05 12:09:45;;;;;;;9.75;1.50;;;3.40;99.90;;;;;;5064625;28;20028;-71
2021/04/05 12:12:21;;;;;;;7.30;1.27;;;3.30;99.90;;;;;;5085553;28;20107;-71
2021/04/05 12:14:53;;;;;;;6.97;1.98;;;3.20;99.90;;;;;;5080402;28;20035;-71
2021/04/05 12:17:21;;;;;;;7.05;2.28;;;3.00;99.90;;;;;;5080234;28;20022;-72
2021/04/05 12:19:49;;;;;;;12.38;2.03;;;3.10;99.90;;;;;;5084292;28;20017;-71
2021/04/05 12:22:15;;;;;;;8.00;2.40;;;3.00;99.90;;;;;;5085972;28;20437;-71
2021/04/05 12:24:46;;;;;;;6.97;1.83;;;3.10;99.90;;;;;;5086585;28;20078;-71
2021/04/05 12:27:13;;;;;;;10.20;2.20;;;3.50;99.90;;;;;;5074744;28;20423;-71
2021/04/05 12:29:42;;;;;;;7.32;1.50;;;3.70;99.90;;;;;;5085052;28;20430;-71
2021/04/05 12:32:16;;;;;;;9.88;1.80;;;4.50;99.90;;;;;;5063260;28;20476;-71
2021/04/05 12:34:44;;;;;;;14.18;3.50;;;4.80;99.90;;;;;;5069537;28;20457;-71
2021/04/05 12:37:15;;;;;;;4.57;1.33;;;5.00;99.90;;;;;;5082822;28;20032;-70
2021/04/05 12:39:44;;;;;;;7.30;1.90;;;5.30;99.90;;;;;;5082844;28;20032;-70
2021/04/05 12:42:12;;;;;;;6.57;1.50;;;4.90;99.90;;;;;;5084260;28;20104;-71
2021/04/05 12:44:42;;;;;;;5.60;1.52;;;5.10;99.90;;;;;;5060864;28;20063;-70
2021/04/05 12:47:10;;;;;;;8.77;1.83;;;;;;;;;;5080403;28;20054;-70
2021/04/05 12:49:38;;;;;;;10.40;2.28;;;;;;;;;;5079346;28;20036;-70
2021/04/05 12:52:05;;;;;;;8.07;2.60;;;;;;;;;;5075480;28;20036;-71
2021/04/05 12:54:35;;;;;;;5.00;1.38;;;3.60;99.90;;;;;;5085403;28;20024;-70
2021/04/05 12:57:04;;;;;;;3.17;1.17;;;2.60;99.90;;;;;;5086624;28;20032;-70
2021/04/05 12:59:30;;;;;;;2.45;1.00;;;2.30;99.90;;;;;;5069833;28;20791;-70
2021/04/05 13:02:04;;;;;;;3.33;1.00;;;2.30;99.90;;;;;;5084936;28;20016;-70
2021/04/05 13:04:31;;;;;;;2.38;0.90;;;2.30;99.90;;;;;;5081467;28;20032;-71
2021/04/05 13:07:32;;;;;;;2.25;1.02;;;2.40;99.40;;;;;;5084254;28;20077;-70
2021/04/05 13:10:01;;;;;;;5.88;1.60;;;2.60;98.80;;;;;;5088090;28;20104;-71
2021/04/05 13:12:34;;;;;;;7.18;1.83;;;2.80;99.10;;;;;;5081269;28;20021;-71
2021/04/05 13:15:08;;;;;;;7.55;1.80;;;3.20;99.40;;;;;;5065695;28;20667;-71
2021/04/05 13:17:38;;;;;;;7.20;1.77;;;4.30;99.20;;;;;;5082354;28;20479;-70
2021/04/05 13:20:06;;;;;;;5.07;1.40;;;4.00;98.20;;;;;;5081202;28;20028;-70
2021/04/05 13:22:35;;;;;;;4.75;1.20;;;3.70;99.70;;;;;;5087597;28;20131;-70